Time;durP1;ratioP1;P1;durP2;ratioP2;P2;SDS_P1;SDS_P2;PMS_P1;PMS_P2;Temp;Humidity;BMP_temperature;BMP_pressure;BME280_temperature;BME280_humidity;BME280_pressure;Samples;Min_cycle;Max_cycle;Signal;HPM_P1;HPM_P2
2021/08/29 00:00:36;;;;;;;;;7.75;4.00;;;;;;;;5081103;28;46940;-77
2021/08/29 00:03:01;;;;;;;;;5.00;4.50;;;;;;;;5081092;28;47013;-77
2021/08/29 00:05:26;;;;;;;;;5.25;4.00;;;;;;;;5081443;28;47046;-76
2021/08/29 00:07:51;;;;;;;;;5.50;4.50;;;;;;;;5080902;28;47313;-76
2021/08/29 00:10:17;;;;;;;;;6.00;6.00;;;;;;;;5081185;28;46839;-77
2021/08/29 00:12:42;;;;;;;;;5.50;4.50;;;;;;;;5062529;28;47058;-77
2021/08/29 00:15:08;;;;;;;;;5.00;4.25;;;;;;;;5081356;28;46908;-76
2021/08/29 00:17:34;;;;;;;;;4.25;2.75;;;;;;;;5080390;28;47068;-76
2021/08/29 00:19:59;;;;;;;;;6.00;6.00;;;;;;;;5080892;28;46980;-76
2021/08/29 00:22:24;;;;;;;;;5.00;4.25;;;;;;;;5080773;28;46821;-76
2021/08/29 00:24:50;;;;;;;;;5.25;3.00;;;;;;;;5062627;28;46838;-76
2021/08/29 00:27:16;;;;;;;;;5.25;4.75;;;;;;;;5080160;28;46945;-76
2021/08/29 00:29:41;;;;;;;;;6.25;3.50;;;;;;;;5080771;28;47091;-77
2021/08/29 00:32:07;;;;;;;;;5.25;5.00;;;;;;;;5062202;28;46825;-77
2021/08/29 00:34:32;;;;;;;;;4.00;4.00;;;;;;;;5080766;28;46813;-76
2021/08/29 00:36:58;;;;;;;;;5.75;5.00;;;;;;;;5080570;28;46969;-76
2021/08/29 00:39:23;;;;;;;;;4.75;4.50;;;;;;;;5080655;28;46797;-76
2021/08/29 00:41:48;;;;;;;;;5.75;5.00;;;;;;;;5080584;28;46758;-76
2021/08/29 00:44:17;;;;;;;;;3.00;3.00;;;;;;;;5080665;28;47224;-76
2021/08/29 00:46:43;;;;;;;;;7.50;3.75;;;;;;;;5080347;28;47042;-76
2021/08/29 00:49:13;;;;;;;;;7.75;5.00;;;;;;;;5080453;28;47031;-76
2021/08/29 00:51:38;;;;;;;;;6.00;4.00;;;;;;;;5080588;28;46824;-76
2021/08/29 00:54:03;;;;;;;;;4.50;3.75;;;;;;;;5080757;28;47112;-76
2021/08/29 00:56:28;;;;;;;;;6.25;3.00;;;;;;;;5079499;28;46860;-76
2021/08/29 00:58:55;;;;;;;;;7.75;3.50;;;;;;;;5080069;28;46853;-76
2021/08/29 01:01:22;;;;;;;;;6.00;5.25;;;;;;;;5080074;28;46974;-77
2021/08/29 01:03:49;;;;;;;;;6.00;4.50;;;;;;;;5080415;28;47085;-76
2021/08/29 01:06:18;;;;;;;;;6.00;3.50;;;;;;;;5061688;28;49304;-76
2021/08/29 01:08:45;;;;;;;;;5.50;5.50;;;;;;;;5061916;28;46954;-76
2021/08/29 01:11:15;;;;;;;;;6.25;4.50;;;;;;;;5080169;28;47208;-76
2021/08/29 01:13:46;;;;;;;;;4.75;4.00;;;;;;;;5080356;28;46907;-76
2021/08/29 01:16:13;;;;;;;;;4.25;3.75;;;;;;;;5079795;28;47076;-77
2021/08/29 01:18:40;;;;;;;;;6.00;5.00;;;;;;;;5079878;28;47150;-77
2021/08/29 01:21:07;;;;;;;;;4.75;4.00;;;;;;;;5080013;28;46928;-77
2021/08/29 01:23:33;;;;;;;;;4.00;4.00;;;;;;;;5080259;28;46747;-77
2021/08/29 01:26:25;;;;;;;;;5.25;4.00;;;;;;;;5073364;28;47993;-77
2021/08/29 01:29:00;;;;;;;;;4.50;3.50;;;;;;;;5060591;28;47197;-76
2021/08/29 01:31:27;;;;;;;;;5.50;5.25;;;;;;;;5079643;28;46852;-76
2021/08/29 01:33:54;;;;;;;;;4.50;2.75;;;;;;;;5079791;28;46853;-76
2021/08/29 01:36:20;;;;;;;;;4.00;4.00;;;;;;;;5079815;28;46846;-76
2021/08/29 01:38:46;;;;;;;;;2.25;2.25;;;;;;;;5079530;28;46892;-76
2021/08/29 01:41:14;;;;;;;;;8.00;4.00;;;;;;;;5079685;28;46986;-76
2021/08/29 01:43:39;;;;;;;;;6.50;5.00;;;;;;;;5079500;28;46998;-76
2021/08/29 01:46:05;;;;;;;;;10.00;5.75;;;;;;;;5079276;28;48024;-77
2021/08/29 01:48:30;;;;;;;;;6.00;4.25;;;;;;;;5079602;28;46785;-77
2021/08/29 01:50:56;;;;;;;;;3.25;3.00;;;;;;;;5061388;28;46777;-77
2021/08/29 01:53:21;;;;;;;;;4.00;3.50;;;;;;;;5079505;28;46821;-76
2021/08/29 01:55:49;;;;;;;;;4.25;3.25;;;;;;;;5079537;28;47856;-76
2021/08/29 01:58:15;;;;;;;;;6.25;4.00;;;;;;;;5079002;28;47472;-77
2021/08/29 02:00:46;;;;;;;;;3.25;1.50;;;;;;;;5079165;28;46987;-77
2021/08/29 02:03:11;;;;;;;;;6.00;4.75;;;;;;;;5079509;28;47030;-77
2021/08/29 02:05:37;;;;;;;;;5.50;5.00;;;;;;;;5079409;28;47902;-77
2021/08/29 02:08:03;;;;;;;;;4.50;2.25;;;;;;;;5077934;28;46880;-77
2021/08/29 02:10:29;;;;;;;;;7.25;4.00;;;;;;;;5079212;28;46991;-77
2021/08/29 02:12:57;;;;;;;;;4.25;3.00;;;;;;;;5079140;28;47374;-77
2021/08/29 02:15:28;;;;;;;;;5.00;4.00;;;;;;;;5078787;28;47174;-77
2021/08/29 02:17:54;;;;;;;;;5.75;5.50;;;;;;;;5078921;28;47117;-76
2021/08/29 02:20:20;;;;;;;;;4.25;3.50;;;;;;;;5078989;28;46948;-76
2021/08/29 02:22:46;;;;;;;;;7.50;5.75;;;;;;;;5066087;28;46970;-76
2021/08/29 02:25:11;;;;;;;;;7.75;6.25;;;;;;;;5060515;28;49074;-77
2021/08/29 02:27:37;;;;;;;;;8.00;6.00;;;;;;;;5065770;28;47102;-77
2021/08/29 02:30:05;;;;;;;;;6.00;4.50;;;;;;;;5078859;28;47090;-77
2021/08/29 02:32:30;;;;;;;;;7.50;5.50;;;;;;;;5060500;28;46843;-77
2021/08/29 02:34:56;;;;;;;;;7.50;6.00;;;;;;;;5078560;28;46799;-77
2021/08/29 02:37:22;;;;;;;;;8.25;6.25;;;;;;;;5078862;28;46687;-77
2021/08/29 02:39:51;;;;;;;;;7.00;5.25;;;;;;;;5078741;28;46958;-77
2021/08/29 02:42:16;;;;;;;;;7.75;5.00;;;;;;;;5078882;28;47818;-77
2021/08/29 02:44:44;;;;;;;;;6.75;5.00;;;;;;;;5078558;28;47073;-77
2021/08/29 02:47:11;;;;;;;;;9.75;6.25;;;;;;;;5078388;28;46906;-77
2021/08/29 02:49:37;;;;;;;;;10.25;8.00;;;;;;;;5078524;28;46755;-77
2021/08/29 02:52:02;;;;;;;;;10.00;7.50;;;;;;;;5078717;28;47348;-76
2021/08/29 02:54:28;;;;;;;;;7.75;6.75;;;;;;;;5078560;28;47130;-76
2021/08/29 02:56:55;;;;;;;;;10.00;7.00;;;;;;;;5078583;28;47097;-76
2021/08/29 02:59:20;;;;;;;;;10.75;5.75;;;;;;;;5078328;28;47014;-76
2021/08/29 03:01:46;;;;;;;;;9.25;6.00;;;;;;;;5078423;28;47041;-76
2021/08/29 03:04:11;;;;;;;;;9.75;7.75;;;;;;;;5078304;28;46924;-76
2021/08/29 03:06:37;;;;;;;;;7.00;6.50;;;;;;;;5078442;28;47006;-77
2021/08/29 03:09:02;;;;;;;;;8.25;8.25;;;;;;;;5078321;28;46904;-77
2021/08/29 03:11:28;;;;;;;;;7.75;7.00;;;;;;;;5078542;28;47004;-77
2021/08/29 03:13:54;;;;;;;;;7.75;7.75;;;;;;;;5077971;28;46986;-76
2021/08/29 03:16:19;;;;;;;;;9.00;7.00;;;;;;;;5078115;28;46967;-76
2021/08/29 03:18:45;;;;;;;;;12.50;8.50;;;;;;;;5077520;28;47618;-76
2021/08/29 03:21:10;;;;;;;;;10.00;9.00;;;;;;;;5059954;28;46849;-76
2021/08/29 03:23:36;;;;;;;;;8.00;7.00;;;;;;;;5077771;28;47163;-76
2021/08/29 03:26:01;;;;;;;;;11.25;7.00;;;;;;;;5071167;28;46915;-76
2021/08/29 03:28:27;;;;;;;;;11.00;6.75;;;;;;;;5071761;28;47016;-77
2021/08/29 03:30:53;;;;;;;;;10.25;7.00;;;;;;;;5059721;28;46833;-76
2021/08/29 03:33:18;;;;;;;;;8.00;8.00;;;;;;;;5077800;28;47858;-76
2021/08/29 03:35:44;;;;;;;;;7.00;6.25;;;;;;;;5078090;28;46781;-76
2021/08/29 03:38:09;;;;;;;;;8.00;4.75;;;;;;;;5078038;28;46872;-77
2021/08/29 03:40:35;;;;;;;;;7.75;6.75;;;;;;;;5078193;28;47169;-76
2021/08/29 03:43:00;;;;;;;;;13.75;9.00;;;;;;;;5077733;28;47161;-76
2021/08/29 03:45:26;;;;;;;;;12.50;9.50;;;;;;;;5077617;28;47104;-76
2021/08/29 03:47:51;;;;;;;;;11.00;8.00;;;;;;;;5078043;28;46878;-76
2021/08/29 03:50:17;;;;;;;;;8.50;8.00;;;;;;;;5059627;28;47033;-76
2021/08/29 03:52:42;;;;;;;;;7.25;7.00;;;;;;;;5059237;28;47596;-77
2021/08/29 03:55:08;;;;;;;;;11.00;9.25;;;;;;;;5077698;28;47059;-76
2021/08/29 03:57:33;;;;;;;;;8.75;6.75;;;;;;;;5059128;28;47154;-77
2021/08/29 03:59:59;;;;;;;;;13.50;7.75;;;;;;;;5059323;28;47169;-76
2021/08/29 04:02:24;;;;;;;;;14.25;9.75;;;;;;;;5077377;28;47276;-76
2021/08/29 04:04:50;;;;;;;;;4.75;4.25;;;;;;;;5059224;28;46777;-76
2021/08/29 04:07:16;;;;;;;;;12.25;10.00;;;;;;;;5077808;28;46872;-76
2021/08/29 04:09:42;;;;;;;;;10.25;9.00;;;;;;;;5077887;28;47275;-77
2021/08/29 04:12:08;;;;;;;;;7.75;7.50;;;;;;;;5077614;28;46940;-77
2021/08/29 04:14:33;;;;;;;;;8.50;6.25;;;;;;;;5077429;28;46793;-76
2021/08/29 04:16:59;;;;;;;;;7.25;6.00;;;;;;;;5077176;28;46884;-76
2021/08/29 04:19:26;;;;;;;;;8.00;7.00;;;;;;;;5077763;28;46854;-76
2021/08/29 04:21:55;;;;;;;;;7.00;6.00;;;;;;;;5077245;28;46997;-76
2021/08/29 04:24:21;;;;;;;;;9.25;7.00;;;;;;;;5064228;28;46869;-76
2021/08/29 04:26:46;;;;;;;;;7.25;5.75;;;;;;;;5064556;28;46950;-77
2021/08/29 04:29:12;;;;;;;;;10.25;9.00;;;;;;;;5077564;28;46891;-77
2021/08/29 04:31:37;;;;;;;;;9.00;8.50;;;;;;;;5078212;28;46859;-77
2021/08/29 04:34:04;;;;;;;;;8.75;6.75;;;;;;;;5080767;28;46872;-77
2021/08/29 04:36:30;;;;;;;;;7.50;5.00;;;;;;;;5081010;28;46847;-76
2021/08/29 04:38:57;;;;;;;;;7.50;7.25;;;;;;;;5080877;28;47071;-76
2021/08/29 04:41:23;;;;;;;;;11.00;6.75;;;;;;;;5062291;28;49632;-76
2021/08/29 04:43:48;;;;;;;;;9.25;6.00;;;;;;;;5080650;28;46904;-76
2021/08/29 04:46:14;;;;;;;;;5.50;5.00;;;;;;;;5080609;28;46951;-76
2021/08/29 04:48:40;;;;;;;;;7.50;5.25;;;;;;;;5080849;28;46847;-76
2021/08/29 04:51:05;;;;;;;;;7.50;6.00;;;;;;;;5080338;28;46794;-76
2021/08/29 04:53:30;;;;;;;;;9.25;8.00;;;;;;;;5080463;28;46938;-75
2021/08/29 04:55:56;;;;;;;;;5.00;5.00;;;;;;;;5080555;28;46869;-76
2021/08/29 04:58:21;;;;;;;;;10.75;7.25;;;;;;;;5080280;28;46781;-76
2021/08/29 05:00:46;;;;;;;;;11.00;7.00;;;;;;;;5080175;28;48343;-77
2021/08/29 05:03:12;;;;;;;;;10.25;8.00;;;;;;;;5080370;28;46832;-76
2021/08/29 05:05:37;;;;;;;;;11.50;9.75;;;;;;;;5080442;28;46875;-76
2021/08/29 05:08:02;;;;;;;;;14.25;11.50;;;;;;;;5080217;28;46775;-76
2021/08/29 05:10:28;;;;;;;;;11.25;9.75;;;;;;;;5080052;28;47078;-76
2021/08/29 05:12:53;;;;;;;;;18.00;12.50;;;;;;;;5079730;28;46841;-76
2021/08/29 05:15:18;;;;;;;;;14.75;12.00;;;;;;;;5079979;28;46803;-76
2021/08/29 05:17:44;;;;;;;;;8.50;6.00;;;;;;;;5080039;28;47053;-76
2021/08/29 05:20:09;;;;;;;;;11.00;9.00;;;;;;;;5080046;28;46984;-76
2021/08/29 05:22:35;;;;;;;;;11.25;9.00;;;;;;;;5079767;28;46726;-76
2021/08/29 05:25:00;;;;;;;;;10.25;7.75;;;;;;;;5079957;28;47071;-76
2021/08/29 05:27:25;;;;;;;;;10.25;7.75;;;;;;;;5066717;28;47022;-76
2021/08/29 05:29:50;;;;;;;;;8.50;7.00;;;;;;;;5080015;28;47091;-76
2021/08/29 05:32:16;;;;;;;;;6.75;6.75;;;;;;;;5079477;28;47045;-76
2021/08/29 05:34:41;;;;;;;;;12.25;7.25;;;;;;;;5061441;28;46912;-76
2021/08/29 05:37:06;;;;;;;;;10.00;6.00;;;;;;;;5079817;28;46939;-77
2021/08/29 05:39:32;;;;;;;;;7.00;7.00;;;;;;;;5080057;28;47077;-76
2021/08/29 05:41:57;;;;;;;;;10.75;9.25;;;;;;;;5079457;28;46875;-76
2021/08/29 05:44:22;;;;;;;;;9.75;8.00;;;;;;;;5079642;28;47043;-76
2021/08/29 05:46:48;;;;;;;;;10.75;9.00;;;;;;;;5079576;28;47159;-76
2021/08/29 05:49:13;;;;;;;;;12.00;10.00;;;;;;;;5079698;28;46992;-76
2021/08/29 05:51:38;;;;;;;;;16.00;10.00;;;;;;;;5079473;28;47024;-76
2021/08/29 05:54:03;;;;;;;;;12.00;9.75;;;;;;;;5079846;28;47002;-76
2021/08/29 05:56:29;;;;;;;;;12.75;11.00;;;;;;;;5079485;28;46963;-76
2021/08/29 05:58:54;;;;;;;;;10.75;9.50;;;;;;;;5079418;28;46983;-76
2021/08/29 06:01:19;;;;;;;;;12.50;9.25;;;;;;;;5060846;28;47187;-76
2021/08/29 06:03:45;;;;;;;;;12.75;6.50;;;;;;;;5079683;28;46809;-76
2021/08/29 06:06:10;;;;;;;;;13.00;10.75;;;;;;;;5079517;28;46793;-76
2021/08/29 06:08:35;;;;;;;;;9.00;8.25;;;;;;;;5060955;28;49595;-76
2021/08/29 06:11:01;;;;;;;;;11.25;9.00;;;;;;;;5079206;28;46857;-76
2021/08/29 06:13:26;;;;;;;;;12.50;11.75;;;;;;;;5079271;28;46940;-76
2021/08/29 06:15:51;;;;;;;;;13.25;11.25;;;;;;;;5079225;28;46817;-76
2021/08/29 06:18:17;;;;;;;;;16.75;13.00;;;;;;;;5078819;28;48029;-76
2021/08/29 06:20:42;;;;;;;;;13.50;13.00;;;;;;;;5078925;28;46885;-76
2021/08/29 06:23:08;;;;;;;;;11.25;10.50;;;;;;;;5079115;28;47028;-76
2021/08/29 06:25:33;;;;;;;;;17.25;12.75;;;;;;;;5076152;28;46814;-76
2021/08/29 06:27:59;;;;;;;;;12.50;11.50;;;;;;;;5068480;28;46984;-76
2021/08/29 06:30:24;;;;;;;;;20.50;14.00;;;;;;;;5078588;28;46786;-76
2021/08/29 06:32:50;;;;;;;;;14.00;11.00;;;;;;;;5078973;28;46764;-76
2021/08/29 06:35:15;;;;;;;;;11.00;10.25;;;;;;;;5079066;28;47062;-76
2021/08/29 06:37:41;;;;;;;;;12.00;11.00;;;;;;;;5078842;28;46904;-76
2021/08/29 06:40:06;;;;;;;;;15.00;14.00;;;;;;;;5060520;28;46978;-76
2021/08/29 06:42:31;;;;;;;;;13.00;10.75;;;;;;;;5078921;28;46962;-76
2021/08/29 06:44:57;;;;;;;;;17.25;13.00;;;;;;;;5078721;28;46946;-76
2021/08/29 06:47:22;;;;;;;;;16.50;12.25;;;;;;;;5078545;28;47002;-76
2021/08/29 06:49:47;;;;;;;;;16.75;11.00;;;;;;;;5078633;28;47095;-76
2021/08/29 06:52:13;;;;;;;;;9.00;8.25;;;;;;;;5078971;28;46837;-76
2021/08/29 06:54:38;;;;;;;;;13.00;9.00;;;;;;;;5078024;28;46931;-76
2021/08/29 06:57:03;;;;;;;;;9.50;6.50;;;;;;;;5078442;28;46942;-76
2021/08/29 06:59:29;;;;;;;;;12.50;8.25;;;;;;;;5078394;28;47029;-76
2021/08/29 07:01:54;;;;;;;;;13.00;9.00;;;;;;;;5078319;28;46937;-76
2021/08/29 07:04:19;;;;;;;;;9.00;8.00;;;;;;;;5078718;28;46946;-76
2021/08/29 07:06:45;;;;;;;;;8.75;5.75;;;;;;;;5078819;28;46979;-76
2021/08/29 07:09:10;;;;;;;;;9.00;7.25;;;;;;;;5060074;28;46963;-76
2021/08/29 07:11:35;;;;;;;;;10.00;8.75;;;;;;;;5078556;28;46865;-76
2021/08/29 07:14:01;;;;;;;;;7.50;6.25;;;;;;;;5060125;28;46789;-76
2021/08/29 07:16:26;;;;;;;;;8.50;7.00;;;;;;;;5078059;28;46907;-76
2021/08/29 07:18:51;;;;;;;;;8.00;6.00;;;;;;;;5078051;28;47016;-76
2021/08/29 07:21:17;;;;;;;;;10.00;6.00;;;;;;;;5078303;28;46802;-76
2021/08/29 07:23:42;;;;;;;;;8.00;7.50;;;;;;;;5078338;28;47173;-76
2021/08/29 07:26:13;;;;;;;;;7.50;6.25;;;;;;;;5070368;28;47597;-76
2021/08/29 07:28:38;;;;;;;;;10.00;7.00;;;;;;;;5073383;28;47354;-76
2021/08/29 07:31:04;;;;;;;;;12.25;7.50;;;;;;;;5078168;28;46916;-76
2021/08/29 07:33:29;;;;;;;;;9.00;7.50;;;;;;;;5078158;28;47262;-76
2021/08/29 07:35:54;;;;;;;;;8.75;8.75;;;;;;;;5078125;28;46901;-76
2021/08/29 07:38:19;;;;;;;;;10.75;9.00;;;;;;;;5077886;28;46954;-76
2021/08/29 07:40:45;;;;;;;;;9.75;9.50;;;;;;;;5078383;28;46843;-76
2021/08/29 07:43:10;;;;;;;;;10.50;8.25;;;;;;;;5078036;28;46788;-76
2021/08/29 07:45:35;;;;;;;;;12.25;10.25;;;;;;;;5077617;28;47655;-76
2021/08/29 07:48:01;;;;;;;;;10.00;8.75;;;;;;;;5059799;28;46892;-76
2021/08/29 07:50:26;;;;;;;;;11.50;10.00;;;;;;;;5078002;28;47165;-76
2021/08/29 07:52:51;;;;;;;;;13.75;11.75;;;;;;;;5078170;28;47027;-76
2021/08/29 07:55:17;;;;;;;;;14.00;12.00;;;;;;;;5077888;28;47315;-76
2021/08/29 07:57:42;;;;;;;;;12.50;9.75;;;;;;;;5059328;28;47513;-76
2021/08/29 08:00:08;;;;;;;;;14.75;11.50;;;;;;;;5077797;28;46781;-76
2021/08/29 08:02:33;;;;;;;;;12.00;10.00;;;;;;;;5078080;28;46995;-76
2021/08/29 08:04:59;;;;;;;;;13.00;12.00;;;;;;;;5078267;28;46863;-76
2021/08/29 08:07:24;;;;;;;;;9.50;9.50;;;;;;;;5081215;28;46928;-76
2021/08/29 08:09:49;;;;;;;;;11.25;11.25;;;;;;;;5081572;28;46758;-76
2021/08/29 08:12:15;;;;;;;;;16.00;11.50;;;;;;;;5081191;28;46954;-76
2021/08/29 08:14:40;;;;;;;;;16.25;13.50;;;;;;;;5081142;28;47022;-76
2021/08/29 08:17:05;;;;;;;;;12.50;11.50;;;;;;;;5080839;28;47096;-76
2021/08/29 08:19:31;;;;;;;;;14.00;13.25;;;;;;;;5081121;28;47035;-76
2021/08/29 08:21:56;;;;;;;;;13.25;9.75;;;;;;;;5062617;28;46987;-76
2021/08/29 08:24:21;;;;;;;;;19.50;15.50;;;;;;;;5081046;28;46930;-76
2021/08/29 08:26:46;;;;;;;;;18.50;15.00;;;;;;;;5067799;28;46993;-76
2021/08/29 08:29:12;;;;;;;;;15.75;14.25;;;;;;;;5062711;28;46900;-76
2021/08/29 08:31:37;;;;;;;;;14.00;11.50;;;;;;;;5080948;28;46950;-76
2021/08/29 08:34:02;;;;;;;;;14.25;12.50;;;;;;;;5080679;28;47034;-76
2021/08/29 08:36:28;;;;;;;;;14.00;13.75;;;;;;;;5080845;28;47093;-76
2021/08/29 08:38:53;;;;;;;;;11.50;10.50;;;;;;;;5080636;28;46964;-76
2021/08/29 08:41:19;;;;;;;;;13.00;10.50;;;;;;;;5081030;28;47070;-76
2021/08/29 08:43:45;;;;;;;;;12.25;9.00;;;;;;;;5080416;28;46948;-76
2021/08/29 08:46:11;;;;;;;;;11.50;10.25;;;;;;;;5080651;28;46892;-76
2021/08/29 08:48:37;;;;;;;;;14.50;9.00;;;;;;;;5080591;28;46695;-76
2021/08/29 08:51:04;;;;;;;;;9.75;8.25;;;;;;;;5081018;28;46880;-76
2021/08/29 08:53:31;;;;;;;;;9.25;7.25;;;;;;;;5080530;28;46890;-76
2021/08/29 08:55:57;;;;;;;;;11.25;8.25;;;;;;;;5080582;28;47116;-76
2021/08/29 08:58:22;;;;;;;;;9.25;7.75;;;;;;;;5080470;28;46931;-76
2021/08/29 09:00:48;;;;;;;;;10.75;10.75;;;;;;;;5080411;28;46892;-76
2021/08/29 09:03:14;;;;;;;;;13.00;8.25;;;;;;;;5080158;28;47018;-76
2021/08/29 09:05:40;;;;;;;;;13.50;12.25;;;;;;;;5080307;28;46974;-76
2021/08/29 09:08:06;;;;;;;;;11.25;8.50;;;;;;;;5080497;28;46826;-76
2021/08/29 09:10:31;;;;;;;;;12.25;12.00;;;;;;;;5080412;28;47243;-76
2021/08/29 09:13:02;;;;;;;;;9.50;8.00;;;;;;;;5080254;28;47245;-76
2021/08/29 09:15:27;;;;;;;;;10.75;8.50;;;;;;;;5079711;28;47221;-76
2021/08/29 09:17:53;;;;;;;;;12.00;9.25;;;;;;;;5079431;28;47149;-76
2021/08/29 09:20:39;;;;;;;;;8.00;8.00;;;;;;;;5062042;28;47355;-76
2021/08/29 09:23:06;;;;;;;;;11.50;5.50;;;;;;;;5070137;28;47284;-76
2021/08/29 09:25:33;;;;;;;;;9.00;7.25;;;;;;;;5077354;28;47059;-76
2021/08/29 09:28:00;;;;;;;;;6.50;5.00;;;;;;;;5069985;28;46947;-76
2021/08/29 09:30:26;;;;;;;;;9.75;7.50;;;;;;;;5079923;28;47031;-77
2021/08/29 09:32:52;;;;;;;;;8.75;8.00;;;;;;;;5079845;28;47247;-76
2021/08/29 09:35:18;;;;;;;;;7.50;4.50;;;;;;;;5079859;28;46978;-77
2021/08/29 09:37:43;;;;;;;;;8.00;7.00;;;;;;;;5079827;28;46895;-77
2021/08/29 09:40:28;;;;;;;;;7.25;6.00;;;;;;;;5079949;28;46875;-77
2021/08/29 09:42:54;;;;;;;;;5.75;4.00;;;;;;;;5079888;28;47066;-76
2021/08/29 09:45:20;;;;;;;;;5.00;3.00;;;;;;;;5079931;28;47029;-77
2021/08/29 09:47:45;;;;;;;;;5.75;5.00;;;;;;;;5080219;28;46917;-76
2021/08/29 09:50:12;;;;;;;;;5.50;5.50;;;;;;;;5079768;28;46835;-76
2021/08/29 09:52:38;;;;;;;;;3.75;3.75;;;;;;;;5079830;28;46896;-76
2021/08/29 09:55:04;;;;;;;;;8.25;7.00;;;;;;;;5061243;28;47495;-76
2021/08/29 09:57:31;;;;;;;;;6.75;6.00;;;;;;;;5079386;28;47130;-76
2021/08/29 09:59:56;;;;;;;;;13.75;6.25;;;;;;;;5079444;28;46928;-77
2021/08/29 10:02:26;;;;;;;;;4.00;3.00;;;;;;;;5079610;28;47052;-76
2021/08/29 10:05:10;;;;;;;;;6.50;5.25;;;;;;;;5079408;28;47228;-76
2021/08/29 10:07:35;;;;;;;;;6.00;5.25;;;;;;;;5079411;28;46934;-76
2021/08/29 10:10:19;;;;;;;;;5.00;5.00;;;;;;;;5079698;28;46989;-76
2021/08/29 10:12:45;;;;;;;;;4.00;4.00;;;;;;;;5060734;28;48328;-76
2021/08/29 10:15:10;;;;;;;;;7.75;6.00;;;;;;;;5079044;28;46786;-76
2021/08/29 10:17:39;;;;;;;;;4.25;3.75;;;;;;;;5078912;28;47268;-76
2021/08/29 10:20:05;;;;;;;;;5.00;5.00;;;;;;;;5079484;28;46936;-77
2021/08/29 10:22:30;;;;;;;;;5.00;5.00;;;;;;;;5078901;28;48919;-76
2021/08/29 10:24:56;;;;;;;;;5.50;5.00;;;;;;;;5079149;28;46928;-76
2021/08/29 10:27:22;;;;;;;;;5.75;5.50;;;;;;;;5078979;28;46939;-76
2021/08/29 10:29:51;;;;;;;;;5.00;5.00;;;;;;;;5077944;28;47138;-76
2021/08/29 10:32:21;;;;;;;;;5.50;5.00;;;;;;;;5078921;28;46971;-77
2021/08/29 10:34:47;;;;;;;;;5.00;5.00;;;;;;;;5078893;28;47154;-77
2021/08/29 10:37:13;;;;;;;;;6.00;4.00;;;;;;;;5079011;28;47018;-76
2021/08/29 10:39:38;;;;;;;;;4.00;4.00;;;;;;;;5079431;28;46884;-76
2021/08/29 10:42:04;;;;;;;;;5.00;5.00;;;;;;;;5078717;28;47736;-76
2021/08/29 10:44:30;;;;;;;;;5.25;4.50;;;;;;;;5060474;28;47265;-76
2021/08/29 10:46:56;;;;;;;;;4.50;4.50;;;;;;;;5078604;28;46869;-76
2021/08/29 10:49:22;;;;;;;;;6.75;5.00;;;;;;;;5079159;28;46889;-76
2021/08/29 10:51:50;;;;;;;;;6.00;4.25;;;;;;;;5078709;28;47918;-76
2021/08/29 10:54:15;;;;;;;;;7.50;5.50;;;;;;;;5078834;28;47028;-76
2021/08/29 10:56:41;;;;;;;;;4.75;4.00;;;;;;;;5078580;28;46939;-76
2021/08/29 10:59:06;;;;;;;;;0.00;0.00;;;;;;;;5078919;28;47164;-76
2021/08/29 11:01:45;;;;;;;;;4.25;4.00;;;;;;;;5078301;28;46969;-76
2021/08/29 11:04:20;;;;;;;;;5.25;4.25;;;;;;;;5078721;28;46947;-76
2021/08/29 11:06:46;;;;;;;;;4.25;4.00;;;;;;;;5079031;28;47071;-76
2021/08/29 11:09:30;;;;;;;;;6.00;6.00;;;;;;;;5078886;28;47291;-76
2021/08/29 11:11:55;;;;;;;;;4.50;4.50;;;;;;;;5078681;28;46882;-76
2021/08/29 11:14:37;;;;;;;;;4.00;4.00;;;;;;;;5078478;28;46781;-76
2021/08/29 11:17:12;;;;;;;;;5.75;5.50;;;;;;;;5059804;28;47082;-76
2021/08/29 11:19:45;;;;;;;;;5.50;5.00;;;;;;;;5078761;28;46987;-76
2021/08/29 11:22:13;;;;;;;;;6.00;4.50;;;;;;;;5078220;28;47062;-76
2021/08/29 11:24:47;;;;;;;;;5.00;5.00;;;;;;;;5078403;28;46996;-76
2021/08/29 11:27:31;;;;;;;;;7.50;5.25;;;;;;;;5046486;28;47040;-76
2021/08/29 11:29:57;;;;;;;;;5.25;5.25;;;;;;;;5078426;28;46998;-76
2021/08/29 11:32:47;;;;;;;;;6.25;6.25;;;;;;;;5078227;28;47849;-76
2021/08/29 11:35:14;;;;;;;;;6.00;5.00;;;;;;;;5074213;28;47148;-76
2021/08/29 11:37:40;;;;;;;;;5.50;4.25;;;;;;;;5078532;28;46986;-76
2021/08/29 11:40:06;;;;;;;;;6.75;4.50;;;;;;;;5060762;28;47096;-76
2021/08/29 11:42:33;;;;;;;;;4.50;4.50;;;;;;;;5081621;28;47002;-76
2021/08/29 11:44:58;;;;;;;;;5.75;3.00;;;;;;;;5081549;28;47208;-77
2021/08/29 11:47:42;;;;;;;;;4.25;3.25;;;;;;;;5081868;28;47102;-77
2021/08/29 11:50:09;;;;;;;;;7.00;4.50;;;;;;;;5081891;28;47049;-77
2021/08/29 11:52:37;;;;;;;;;3.25;3.00;;;;;;;;5081745;28;47226;-77
2021/08/29 11:55:13;;;;;;;;;3.00;3.00;;;;;;;;5081676;28;46912;-76
2021/08/29 11:57:49;;;;;;;;;5.25;4.25;;;;;;;;5081397;28;46951;-76
2021/08/29 12:00:14;;;;;;;;;3.75;3.75;;;;;;;;5081445;28;47125;-76
2021/08/29 12:02:44;;;;;;;;;2.75;2.00;;;;;;;;5081503;28;46812;-77
2021/08/29 12:05:10;;;;;;;;;4.00;4.00;;;;;;;;5081592;28;47075;-76
2021/08/29 12:07:37;;;;;;;;;6.50;5.75;;;;;;;;5081488;28;46821;-76
2021/08/29 12:10:02;;;;;;;;;4.00;3.00;;;;;;;;5081699;28;47127;-76
2021/08/29 12:12:28;;;;;;;;;4.00;4.00;;;;;;;;5081235;27;47269;-76
2021/08/29 12:14:54;;;;;;;;;5.00;3.00;;;;;;;;5062752;28;46841;-76
2021/08/29 12:17:20;;;;;;;;;3.00;3.00;;;;;;;;5081331;28;47058;-77
2021/08/29 12:19:50;;;;;;;;;3.50;3.50;;;;;;;;5081539;28;46931;-77
2021/08/29 12:22:16;;;;;;;;;4.00;3.00;;;;;;;;5081093;28;47686;-77
2021/08/29 12:24:42;;;;;;;;;4.00;3.50;;;;;;;;5081298;28;46845;-77
2021/08/29 12:27:09;;;;;;;;;3.00;3.00;;;;;;;;5067605;28;47136;-76
2021/08/29 12:29:43;;;;;;;;;4.00;3.25;;;;;;;;5081189;28;46891;-76
2021/08/29 12:32:10;;;;;;;;;3.75;3.75;;;;;;;;5080938;28;48126;-76
2021/08/29 12:34:36;;;;;;;;;5.50;3.75;;;;;;;;5062566;28;47021;-76
2021/08/29 12:37:12;;;;;;;;;2.00;2.00;;;;;;;;5080971;28;46979;-76
2021/08/29 12:39:38;;;;;;;;;3.25;3.25;;;;;;;;5081230;28;46987;-76
2021/08/29 12:42:14;;;;;;;;;3.25;2.00;;;;;;;;5080895;28;46967;-76
2021/08/29 12:44:39;;;;;;;;;2.00;2.00;;;;;;;;5080501;28;46970;-76
2021/08/29 12:47:04;;;;;;;;;3.25;3.25;;;;;;;;5081101;28;47183;-76
2021/08/29 12:49:30;;;;;;;;;4.25;3.75;;;;;;;;5081116;28;46964;-76
2021/08/29 12:51:55;;;;;;;;;4.00;3.00;;;;;;;;5061336;28;50071;-76
2021/08/29 12:54:20;;;;;;;;;3.25;3.25;;;;;;;;5080757;28;46852;-76
2021/08/29 12:56:50;;;;;;;;;4.50;2.75;;;;;;;;5062467;28;47092;-76
2021/08/29 12:59:23;;;;;;;;;3.00;2.75;;;;;;;;5080717;28;47136;-77
2021/08/29 13:01:52;;;;;;;;;4.50;2.50;;;;;;;;5080415;28;47153;-77
2021/08/29 13:04:23;;;;;;;;;2.50;2.50;;;;;;;;5080651;28;47001;-77
2021/08/29 13:06:59;;;;;;;;;3.75;3.00;;;;;;;;5062304;28;46766;-76
2021/08/29 13:09:25;;;;;;;;;2.50;2.50;;;;;;;;5080782;28;46967;-76
2021/08/29 13:11:50;;;;;;;;;5.50;3.00;;;;;;;;5062125;28;47106;-76
2021/08/29 13:14:25;;;;;;;;;6.50;3.00;;;;;;;;5080249;28;47047;-76
2021/08/29 13:16:51;;;;;;;;;3.25;3.25;;;;;;;;5080065;28;46904;-76
2021/08/29 13:19:22;;;;;;;;;4.50;4.00;;;;;;;;5080382;28;46914;-76
2021/08/29 13:21:55;;;;;;;;;5.00;4.00;;;;;;;;5080286;28;47643;-76
2021/08/29 13:24:25;;;;;;;;;4.50;3.25;;;;;;;;5066964;28;46795;-76
2021/08/29 13:26:51;;;;;;;;;8.75;4.00;;;;;;;;5067110;28;47086;-76
2021/08/29 13:29:16;;;;;;;;;4.50;4.50;;;;;;;;5080406;28;46961;-76
2021/08/29 13:31:41;;;;;;;;;7.00;4.75;;;;;;;;5079836;28;46995;-76
2021/08/29 13:34:08;;;;;;;;;5.50;5.00;;;;;;;;5080003;28;46999;-76
2021/08/29 13:36:34;;;;;;;;;5.25;4.75;;;;;;;;5061741;28;46978;-76
2021/08/29 13:38:59;;;;;;;;;6.00;5.00;;;;;;;;5080213;28;47172;-76
2021/08/29 13:41:27;;;;;;;;;6.50;5.00;;;;;;;;5079900;28;47694;-76
2021/08/29 13:43:54;;;;;;;;;6.00;5.75;;;;;;;;5079813;28;46982;-77
2021/08/29 13:46:19;;;;;;;;;10.25;9.00;;;;;;;;5079627;28;46888;-78
2021/08/29 13:48:44;;;;;;;;;7.00;5.75;;;;;;;;5080005;28;46858;-79
2021/08/29 13:51:11;;;;;;;;;9.50;8.00;;;;;;;;5079726;28;46800;-79
2021/08/29 13:53:37;;;;;;;;;7.75;7.25;;;;;;;;5079778;28;47194;-79
2021/08/29 13:56:03;;;;;;;;;11.50;8.00;;;;;;;;5079682;28;46993;-79
2021/08/29 13:58:28;;;;;;;;;9.00;9.00;;;;;;;;5079753;28;47215;-79
2021/08/29 14:00:56;;;;;;;;;10.25;9.50;;;;;;;;5079274;28;46987;-79
2021/08/29 14:03:21;;;;;;;;;11.75;10.00;;;;;;;;5061240;28;47126;-79
2021/08/29 14:05:47;;;;;;;;;12.50;9.25;;;;;;;;5061239;28;46931;-79
2021/08/29 14:08:12;;;;;;;;;9.00;8.00;;;;;;;;5079836;28;46813;-79
2021/08/29 14:10:37;;;;;;;;;10.75;10.00;;;;;;;;5079147;28;47067;-79
2021/08/29 14:13:03;;;;;;;;;9.25;9.00;;;;;;;;5061013;28;46883;-79
2021/08/29 14:15:29;;;;;;;;;9.00;8.00;;;;;;;;5079207;28;47010;-79
2021/08/29 14:17:55;;;;;;;;;7.50;7.50;;;;;;;;5079412;28;46781;-79
2021/08/29 14:20:21;;;;;;;;;9.50;7.25;;;;;;;;5079310;28;47163;-78
2021/08/29 14:22:46;;;;;;;;;6.50;6.50;;;;;;;;5079425;28;47110;-78
2021/08/29 14:25:14;;;;;;;;;8.50;8.00;;;;;;;;5061070;28;47050;-78
2021/08/29 14:27:44;;;;;;;;;8.50;8.00;;;;;;;;5079475;28;46951;-78
2021/08/29 14:30:09;;;;;;;;;12.00;7.50;;;;;;;;5078781;28;48146;-78
2021/08/29 14:32:35;;;;;;;;;8.50;8.50;;;;;;;;5079455;28;47053;-78